Time;durP1;ratioP1;P1;durP2;ratioP2;P2;SDS_P1;SDS_P2;PMS_P1;PMS_P2;Temp;Humidity;BMP_temperature;BMP_pressure;BME280_temperature;BME280_humidity;BME280_pressure;Samples;Min_cycle;Max_cycle;Signal;HPM_P1;HPM_P2
2024/03/30 00:00:03;;;;;;;2.88;1.60;;;;;;;12.63;55.11;93601.88;522018;28;875;-71
2024/03/30 00:00:19;;;;;;;2.40;1.60;;;;;;;12.64;55.69;93603.34;522036;28;833;-71
2024/03/30 00:00:36;;;;;;;2.20;1.80;;;;;;;12.58;55.88;93600.06;521946;28;863;-71
2024/03/30 00:00:52;;;;;;;2.20;1.77;;;;;;;12.54;56.58;93605.25;521953;28;808;-71
2024/03/30 00:01:08;;;;;;;1.95;1.65;;;;;;;12.50;56.31;93602.09;521745;28;1018;-71
2024/03/30 00:01:23;;;;;;;2.50;1.80;;;;;;;12.48;56.51;93604.69;521933;28;756;-71
2024/03/30 00:01:39;;;;;;;2.70;1.80;;;;;;;12.44;56.19;93601.56;521869;28;836;-71
2024/03/30 00:01:54;;;;;;;2.60;1.80;;;;;;;12.40;56.49;93606.72;521957;28;808;-71
2024/03/30 00:02:10;;;;;;;2.42;1.73;;;;;;;12.37;56.36;93605.81;522038;28;797;-71
2024/03/30 00:02:26;;;;;;;2.73;1.80;;;;;;;12.36;56.41;93604.34;521932;28;820;-71
2024/03/30 00:02:42;;;;;;;2.75;1.65;;;;;;;12.33;56.58;93601.94;521768;28;919;-71
2024/03/30 00:02:57;;;;;;;2.40;1.57;;;;;;;12.32;56.41;93612.28;521691;28;1559;-71
2024/03/30 00:03:13;;;;;;;2.45;1.80;;;;;;;12.31;56.34;93607.28;521026;28;930;-71
2024/03/30 00:03:28;;;;;;;3.17;2.03;;;;;;;12.27;56.30;93601.41;520270;28;1156;-71
2024/03/30 00:03:45;;;;;;;3.28;2.08;;;;;;;12.23;56.66;93603.81;521865;28;871;-71
2024/03/30 00:04:01;;;;;;;3.88;2.20;;;;;;;12.16;56.75;93603.28;521905;28;931;-71
2024/03/30 00:04:16;;;;;;;4.87;2.10;;;;;;;12.13;56.63;93607.13;521956;28;808;-71
2024/03/30 00:04:32;;;;;;;3.95;1.90;;;;;;;12.10;56.74;93608.25;521827;28;820;-71
2024/03/30 00:04:47;;;;;;;3.47;1.87;;;;;;;12.07;56.91;93606.59;521817;28;828;-71
2024/03/30 00:05:03;;;;;;;3.05;2.00;;;;;;;12.04;57.10;93604.94;521438;28;1045;-71
2024/03/30 00:05:18;;;;;;;2.93;2.17;;;;;;;12.00;57.62;93607.34;521636;28;868;-70
2024/03/30 00:05:34;;;;;;;3.75;2.10;;;;;;;11.95;57.75;93605.47;521918;28;931;-71
2024/03/30 00:05:59;;;;;;;3.77;2.23;;;;;;;11.87;57.77;93612.31;519979;28;1718;-71
2024/03/30 00:06:15;;;;;;;2.72;2.20;;;;;;;11.85;57.87;93609.34;520120;28;832;-71
2024/03/30 00:06:30;;;;;;;2.77;2.27;;;;;;;11.80;58.33;93604.75;521665;28;987;-71
2024/03/30 00:06:46;;;;;;;4.22;2.60;;;;;;;11.77;58.42;93608.63;521607;28;1001;-71
2024/03/30 00:07:01;;;;;;;4.97;2.87;;;;;;;11.73;58.55;93608.25;521903;28;760;-71
2024/03/30 00:07:16;;;;;;;3.43;2.40;;;;;;;11.68;58.29;93607.16;521928;28;867;-71
2024/03/30 00:07:33;;;;;;;2.67;1.95;;;;;;;11.64;58.32;93608.78;521916;28;931;-71
2024/03/30 00:07:48;;;;;;;2.78;2.00;;;;;;;11.62;58.29;93603.78;521831;28;912;-71
2024/03/30 00:08:04;;;;;;;2.93;2.30;;;;;;;11.62;58.14;93603.78;521784;28;1977;-71
2024/03/30 00:08:20;;;;;;;4.28;2.58;;;;;;;11.60;58.72;93609.16;521678;28;1048;-71
2024/03/30 00:08:35;;;;;;;4.13;2.45;;;;;;;11.59;58.82;93613.19;521944;28;824;-71
2024/03/30 00:08:50;;;;;;;4.67;2.47;;;;;;;11.57;59.31;93604.72;522016;28;821;-71
2024/03/30 00:09:06;;;;;;;4.57;2.33;;;;;;;11.57;59.36;93607.47;521931;28;848;-71
2024/03/30 00:09:21;;;;;;;3.97;2.20;;;;;;;11.57;59.29;93601.19;521863;28;871;-71
2024/03/30 00:09:37;;;;;;;4.32;2.08;;;;;;;11.56;59.77;93608.78;521841;28;907;-71
2024/03/30 00:09:52;;;;;;;2.77;1.73;;;;;;;11.56;59.45;93600.47;521956;28;756;-70
2024/03/30 00:10:09;;;;;;;2.53;1.80;;;;;;;11.56;59.46;93605.25;521854;28;1013;-70
2024/03/30 00:10:25;;;;;;;3.60;2.00;;;;;;;11.51;59.64;93609.69;520955;28;1693;-70
2024/03/30 00:10:40;;;;;;;3.63;1.90;;;;;;;11.47;59.52;93603.03;521828;28;919;-70
2024/03/30 00:11:04;;;;;;;2.28;1.80;;;;;;;11.48;59.69;93604.53;520619;28;868;-70
2024/03/30 00:11:19;;;;;;;2.53;1.50;;;;;;;11.48;59.75;93605.25;519734;28;1005;-70
2024/03/30 00:11:35;;;;;;;2.20;1.40;;;;;;;11.49;59.57;93601.19;520008;28;1013;-70
2024/03/30 00:11:51;;;;;;;2.47;1.50;;;;;;;11.52;59.08;93604.91;521814;28;796;-71
2024/03/30 00:12:06;;;;;;;2.33;1.40;;;;;;;11.55;58.97;93604.53;521720;28;884;-71
2024/03/30 00:12:22;;;;;;;2.07;1.47;;;;;;;11.57;58.92;93601.94;521757;28;888;-70
2024/03/30 00:12:37;;;;;;;2.65;1.58;;;;;;;11.61;58.98;93596.78;520643;28;907;-70
2024/03/30 00:12:56;;;;;;;2.77;1.50;;;;;;;11.65;59.21;93608.22;521725;28;773;-71
2024/03/30 00:13:11;;;;;;;2.57;1.70;;;;;;;11.68;59.21;93600.88;521759;28;1006;-70
2024/03/30 00:13:27;;;;;;;2.70;1.60;;;;;;;11.70;58.93;93599.03;521887;28;996;-70
2024/03/30 00:13:42;;;;;;;2.05;1.20;;;;;;;11.72;58.86;93604.00;521876;28;816;-70
2024/03/30 00:13:58;;;;;;;2.00;1.30;;;;;;;11.72;58.66;93599.22;521642;28;1619;-70
2024/03/30 00:14:13;;;;;;;1.93;1.53;;;;;;;11.72;58.95;93599.22;521480;28;800;-70
2024/03/30 00:14:28;;;;;;;2.17;1.52;;;;;;;11.69;58.82;93596.81;519931;28;808;-69
2024/03/30 00:14:44;;;;;;;2.60;1.37;;;;;;;11.66;58.68;93597.88;521852;28;843;-70
2024/03/30 00:14:59;;;;;;;2.67;1.25;;;;;;;11.62;59.03;93603.78;521792;28;1087;-70
2024/03/30 00:15:15;;;;;;;2.13;1.23;;;;;;;11.62;59.11;93598.28;521920;28;831;-70
2024/03/30 00:15:31;;;;;;;1.95;1.20;;;;;;;11.65;59.11;93608.22;521964;28;965;-70
2024/03/30 00:15:46;;;;;;;2.67;1.33;;;;;;;11.65;59.42;93602.69;521543;28;895;-70
2024/03/30 00:16:08;;;;;;;2.60;1.50;;;;;;;11.65;59.51;93601.97;521945;28;797;-70
2024/03/30 00:16:24;;;;;;;1.98;1.50;;;;;;;11.65;59.09;93604.72;519744;28;1148;-70
2024/03/30 00:16:39;;;;;;;2.37;1.50;;;;;;;11.68;59.07;93606.41;521086;28;1582;-70
2024/03/30 00:16:54;;;;;;;2.03;1.60;;;;;;;11.69;58.95;93603.09;520847;28;876;-70
2024/03/30 00:17:10;;;;;;;1.90;1.50;;;;;;;11.71;59.00;93600.53;519936;28;829;-70
2024/03/30 00:17:26;;;;;;;1.73;1.30;;;;;;;11.75;59.12;93605.69;521731;28;931;-70
2024/03/30 00:17:41;;;;;;;1.23;1.10;;;;;;;11.75;59.07;93606.41;521572;28;808;-70
2024/03/30 00:17:58;;;;;;;1.92;1.25;;;;;;;11.76;59.01;93602.34;521723;28;895;-70
2024/03/30 00:18:13;;;;;;;1.85;1.38;;;;;;;11.76;59.27;93607.16;521861;28;1211;-70
2024/03/30 00:18:29;;;;;;;1.77;1.60;;;;;;;11.76;58.92;93596.81;521808;28;844;-70
2024/03/30 00:18:45;;;;;;;2.07;1.77;;;;;;;11.79;58.92;93604.03;521276;28;808;-70
2024/03/30 00:19:02;;;;;;;2.17;1.70;;;;;;;11.81;58.76;93609.72;521828;28;838;-70
2024/03/30 00:19:18;;;;;;;2.90;1.67;;;;;;;11.85;58.81;93606.59;521715;28;946;-70
2024/03/30 00:19:36;;;;;;;2.47;1.50;;;;;;;11.86;58.75;93610.84;521707;28;843;-70
2024/03/30 00:19:51;;;;;;;1.55;1.45;;;;;;;11.89;59.20;93606.97;521605;28;1097;-70
2024/03/30 00:20:07;;;;;;;1.85;1.60;;;;;;;11.91;59.10;93607.16;521778;28;868;-70
2024/03/30 00:20:23;;;;;;;2.00;1.70;;;;;;;11.92;59.33;93603.84;521742;28;860;-70
2024/03/30 00:20:39;;;;;;;2.63;1.75;;;;;;;11.92;58.99;93609.38;522852;28;992;-70
2024/03/30 00:20:55;;;;;;;3.28;1.70;;;;;;;11.92;59.16;93606.59;521329;28;1690;-70
2024/03/30 00:21:17;;;;;;;2.47;1.70;;;;;;;11.93;58.49;93608.06;520698;28;848;-70
2024/03/30 00:21:32;;;;;;;4.57;1.80;;;;;;;11.94;58.53;93612.31;521311;28;868;-70
2024/03/30 00:21:47;;;;;;;4.97;1.80;;;;;;;11.95;58.29;93611.00;521504;28;875;-70
2024/03/30 00:22:03;;;;;;;2.25;1.60;;;;;;;11.96;58.32;93615.28;519753;28;887;-70
2024/03/30 00:22:19;;;;;;;2.03;1.60;;;;;;;11.95;58.14;93616.53;519528;28;871;-70
2024/03/30 00:22:34;;;;;;;2.35;1.70;;;;;;;11.97;57.82;93618.78;520021;28;780;-70
2024/03/30 00:22:50;;;;;;;2.50;1.90;;;;;;;11.95;57.79;93613.06;521710;28;851;-70
2024/03/30 00:23:05;;;;;;;3.33;1.90;;;;;;;11.99;57.91;93616.19;521642;28;1068;-70
2024/03/30 00:23:21;;;;;;;3.45;1.75;;;;;;;12.00;58.04;93614.88;521653;28;839;-70
2024/03/30 00:23:36;;;;;;;2.93;1.77;;;;;;;12.00;58.09;93615.63;521158;28;1812;-70
2024/03/30 00:23:52;;;;;;;2.43;1.80;;;;;;;12.01;58.62;93614.34;520358;28;789;-70
2024/03/30 00:24:07;;;;;;;2.28;1.73;;;;;;;12.02;58.63;93618.59;520906;28;888;-71
2024/03/30 00:24:23;;;;;;;2.00;1.67;;;;;;;12.03;58.46;93616.56;521774;28;864;-71
2024/03/30 00:24:38;;;;;;;1.80;1.60;;;;;;;12.03;58.78;93613.78;521385;28;1032;-70
2024/03/30 00:24:54;;;;;;;3.00;1.70;;;;;;;12.03;58.46;93614.53;521692;28;852;-70
2024/03/30 00:25:09;;;;;;;3.00;1.60;;;;;;;12.04;58.92;93610.47;521789;28;870;-70
2024/03/30 00:25:24;;;;;;;2.50;1.67;;;;;;;12.06;58.73;93618.94;521749;28;928;-70
2024/03/30 00:25:41;;;;;;;2.83;1.83;;;;;;;12.07;58.90;93619.69;521535;28;797;-70
2024/03/30 00:25:57;;;;;;;2.47;1.73;;;;;;;12.07;58.90;93612.13;521633;28;873;-71
2024/03/30 00:26:12;;;;;;;1.95;1.60;;;;;;;12.05;58.94;93613.97;521295;28;1006;-71
2024/03/30 00:26:29;;;;;;;2.53;1.70;;;;;;;12.00;58.92;93618.41;521563;28;1090;-72
2024/03/30 00:26:45;;;;;;;3.42;2.10;;;;;;;12.00;58.73;93617.66;521224;28;1719;-72
2024/03/30 00:27:00;;;;;;;3.15;1.95;;;;;;;12.00;58.72;93617.66;521535;28;768;-71
2024/03/30 00:27:16;;;;;;;2.93;1.50;;;;;;;11.99;58.76;93614.16;521541;28;797;-71
2024/03/30 00:27:31;;;;;;;2.67;1.60;;;;;;;11.93;58.38;93619.13;521634;28;904;-71
2024/03/30 00:27:47;;;;;;;2.07;1.73;;;;;;;11.84;58.52;93616.94;519960;28;1021;-71
2024/03/30 00:28:03;;;;;;;1.80;1.60;;;;;;;11.81;58.87;93615.28;521758;28;1918;-71
2024/03/30 00:28:18;;;;;;;1.65;1.40;;;;;;;11.80;58.71;93618.59;521728;28;1469;-72
2024/03/30 00:28:33;;;;;;;2.90;1.43;;;;;;;11.78;58.50;93616.38;521781;28;780;-71
2024/03/30 00:28:49;;;;;;;3.47;1.63;;;;;;;11.80;58.65;93618.59;521016;28;1105;-71
2024/03/30 00:29:05;;;;;;;2.40;1.70;;;;;;;11.80;58.60;93618.59;519781;28;918;-71
2024/03/30 00:29:20;;;;;;;1.75;1.60;;;;;;;11.77;58.71;93619.69;519666;28;998;-71
2024/03/30 00:29:36;;;;;;;1.87;1.60;;;;;;;11.74;58.95;93615.25;521652;28;810;-71
2024/03/30 00:29:51;;;;;;;2.58;1.63;;;;;;;11.67;59.01;93611.22;521694;28;923;-71
2024/03/30 00:30:07;;;;;;;2.93;1.60;;;;;;;11.56;59.19;93611.53;521732;28;889;-71
2024/03/30 00:30:24;;;;;;;2.38;1.60;;;;;;;11.56;59.23;93621.84;521746;28;851;-71
2024/03/30 00:30:41;;;;;;;1.63;1.52;;;;;;;11.50;59.31;93615.78;521692;28;874;-71
2024/03/30 00:30:57;;;;;;;2.50;1.48;;;;;;;11.46;59.41;93612.63;520836;28;1677;-71
2024/03/30 00:31:12;;;;;;;2.87;1.50;;;;;;;11.42;59.79;93618.50;521580;28;1152;-71
2024/03/30 00:31:29;;;;;;;1.60;1.25;;;;;;;11.39;59.83;93619.63;521767;28;832;-71
2024/03/30 00:31:44;;;;;;;2.97;1.40;;;;;;;11.38;59.78;93612.59;521571;28;1074;-71
2024/03/30 00:32:00;;;;;;;3.67;1.50;;;;;;;11.37;59.87;93620.16;521786;28;839;-71
2024/03/30 00:32:15;;;;;;;2.57;1.60;;;;;;;11.38;59.81;93618.88;521923;28;891;-71
2024/03/30 00:32:31;;;;;;;2.83;1.60;;;;;;;11.38;60.01;93620.91;522023;28;901;-70
2024/03/30 00:32:49;;;;;;;2.60;1.57;;;;;;;11.33;59.87;93619.03;520274;28;898;-71
2024/03/30 00:33:04;;;;;;;2.13;1.60;;;;;;;11.31;60.15;93616.09;521265;28;909;-71
2024/03/30 00:33:20;;;;;;;2.50;1.60;;;;;;;11.31;60.14;93624.38;521889;28;832;-71
2024/03/30 00:33:35;;;;;;;2.37;1.50;;;;;;;11.30;59.75;93626.41;521909;28;903;-71
2024/03/30 00:33:50;;;;;;;2.15;1.35;;;;;;;11.33;59.82;93613.50;521912;28;871;-70
2024/03/30 00:34:07;;;;;;;2.27;1.57;;;;;;;11.35;59.60;93619.97;521967;28;788;-71
2024/03/30 00:34:23;;;;;;;2.10;1.73;;;;;;;11.35;59.86;93619.22;521738;28;1191;-71
2024/03/30 00:34:38;;;;;;;1.83;1.53;;;;;;;11.34;59.65;93618.50;521828;28;820;-70
2024/03/30 00:34:54;;;;;;;1.90;1.50;;;;;;;11.32;59.90;93623.84;521867;28;765;-71
2024/03/30 00:35:09;;;;;;;2.30;1.53;;;;;;;11.31;60.44;93613.31;521994;28;848;-71
2024/03/30 00:35:25;;;;;;;3.40;1.83;;;;;;;11.32;60.34;93621.09;521896;28;844;-71
2024/03/30 00:35:40;;;;;;;3.20;1.90;;;;;;;11.33;60.36;93619.03;521122;28;1907;-71
2024/03/30 00:35:57;;;;;;;2.13;1.50;;;;;;;11.34;60.34;93621.28;520376;28;923;-71
2024/03/30 00:36:12;;;;;;;3.38;1.48;;;;;;;11.34;60.64;93615.00;519985;28;843;-70
2024/03/30 00:36:28;;;;;;;3.88;1.67;;;;;;;11.36;60.00;93620.72;519822;28;812;-71
2024/03/30 00:36:43;;;;;;;1.80;1.60;;;;;;;11.38;59.98;93615.38;521719;28;864;-71
2024/03/30 00:36:59;;;;;;;2.03;1.58;;;;;;;11.39;60.08;93623.09;521872;28;864;-70
2024/03/30 00:37:14;;;;;;;2.37;1.73;;;;;;;11.41;60.54;93619.81;521840;28;1502;-71
2024/03/30 00:37:30;;;;;;;2.50;1.80;;;;;;;11.42;60.66;93610.22;521704;28;1041;-71
2024/03/30 00:37:48;;;;;;;2.55;1.75;;;;;;;11.41;60.88;93612.25;521834;28;935;-71
2024/03/30 00:38:04;;;;;;;2.90;1.60;;;;;;;11.41;60.82;93617.75;521899;28;880;-71
2024/03/30 00:38:19;;;;;;;3.88;1.67;;;;;;;11.43;60.88;93617.22;521925;28;830;-71
2024/03/30 00:38:37;;;;;;;3.00;1.55;;;;;;;11.43;60.79;93617.94;521393;28;1705;-70
2024/03/30 00:38:53;;;;;;;1.67;1.50;;;;;;;11.44;60.64;93616.69;521880;28;835;-71
2024/03/30 00:39:11;;;;;;;1.73;1.60;;;;;;;11.46;60.34;93618.88;520633;28;946;-71
2024/03/30 00:39:27;;;;;;;1.90;1.70;;;;;;;11.47;59.93;93616.88;521792;28;1171;-71
2024/03/30 00:39:42;;;;;;;2.50;1.70;;;;;;;11.44;60.10;93615.94;521889;28;843;-71
2024/03/30 00:39:58;;;;;;;2.13;1.50;;;;;;;11.40;59.60;93613.53;521782;28;800;-70
2024/03/30 00:40:14;;;;;;;1.88;1.40;;;;;;;11.37;59.60;93613.88;521933;28;931;-70
2024/03/30 00:40:29;;;;;;;2.85;1.77;;;;;;;11.30;59.70;93614.63;521830;28;960;-70
2024/03/30 00:40:44;;;;;;;2.33;1.73;;;;;;;11.22;60.31;93619.38;521751;28;1025;-70
2024/03/30 00:41:00;;;;;;;1.48;1.38;;;;;;;11.16;60.17;93618.81;521770;28;1224;-70
2024/03/30 00:41:15;;;;;;;2.97;1.50;;;;;;;11.12;60.42;93624.72;520952;28;1737;-70
2024/03/30 00:41:31;;;;;;;3.23;1.60;;;;;;;11.12;60.46;93618.44;520725;28;898;-70
2024/03/30 00:41:46;;;;;;;1.75;1.55;;;;;;;11.13;60.61;93614.41;520863;28;761;-70
2024/03/30 00:42:02;;;;;;;2.10;1.60;;;;;;;11.13;60.89;93614.41;521955;28;1001;-70
2024/03/30 00:42:18;;;;;;;2.63;1.55;;;;;;;11.15;61.07;93617.34;521932;28;796;-70
2024/03/30 00:42:34;;;;;;;2.50;1.60;;;;;;;11.16;60.87;93622.31;520132;28;906;-70
2024/03/30 00:42:49;;;;;;;1.80;1.60;;;;;;;11.19;60.89;93621.22;521941;28;827;-70
2024/03/30 00:43:06;;;;;;;2.77;1.40;;;;;;;11.21;61.00;93618.66;521917;28;839;-70
2024/03/30 00:43:22;;;;;;;3.03;1.35;;;;;;;11.23;60.86;93623.63;521947;28;886;-70
2024/03/30 00:43:37;;;;;;;2.17;1.50;;;;;;;11.25;60.54;93621.06;521810;28;899;-70
2024/03/30 00:43:53;;;;;;;2.73;1.70;;;;;;;11.27;60.57;93619.22;521903;28;769;-70
2024/03/30 00:44:08;;;;;;;2.92;1.65;;;;;;;11.28;60.65;93626.22;521685;28;866;-70
2024/03/30 00:44:24;;;;;;;3.13;1.60;;;;;;;11.29;60.53;93621.44;522001;28;800;-70
2024/03/30 00:44:39;;;;;;;2.22;1.45;;;;;;;11.26;60.72;93617.72;521832;28;828;-70
2024/03/30 00:44:56;;;;;;;4.57;1.70;;;;;;;11.24;60.49;93620.31;521859;28;847;-70
2024/03/30 00:45:11;;;;;;;4.57;1.85;;;;;;;11.19;60.82;93615.72;521906;28;859;-70
2024/03/30 00:45:26;;;;;;;2.17;1.60;;;;;;;11.17;60.75;93615.53;521808;28;881;-70
2024/03/30 00:45:43;;;;;;;2.00;1.50;;;;;;;11.16;60.90;93616.78;521767;28;957;-72
2024/03/30 00:45:59;;;;;;;2.25;1.58;;;;;;;11.15;60.97;93617.34;520984;28;1737;-70
2024/03/30 00:46:14;;;;;;;2.43;1.67;;;;;;;11.11;60.89;93614.94;520201;28;880;-70
2024/03/30 00:46:30;;;;;;;2.35;1.80;;;;;;;11.06;60.92;93618.63;521412;28;860;-70
2024/03/30 00:46:45;;;;;;;2.37;1.70;;;;;;;10.97;60.89;93615.63;521733;28;824;-70
2024/03/30 00:47:02;;;;;;;2.83;1.70;;;;;;;10.93;61.11;93618.75;521870;28;868;-70
2024/03/30 00:47:18;;;;;;;2.75;1.75;;;;;;;10.91;61.29;93609.53;521816;28;1136;-70
2024/03/30 00:47:34;;;;;;;2.05;1.70;;;;;;;10.89;61.29;93621.13;521842;28;829;-70
2024/03/30 00:47:49;;;;;;;1.97;1.70;;;;;;;10.88;61.03;93616.88;519857;28;800;-71
2024/03/30 00:48:05;;;;;;;2.33;1.80;;;;;;;10.89;61.32;93623.16;520589;28;1966;-70
2024/03/30 00:48:21;;;;;;;2.90;2.13;;;;;;;10.91;61.06;93618.56;521845;28;816;-70
2024/03/30 00:48:36;;;;;;;2.90;2.15;;;;;;;10.93;61.12;93618.00;521366;28;1753;-70
2024/03/30 00:48:52;;;;;;;2.73;1.97;;;;;;;10.96;61.01;93617.66;521361;28;918;-70
2024/03/30 00:49:07;;;;;;;2.77;2.07;;;;;;;10.98;61.05;93617.13;521850;28;855;-70
2024/03/30 00:49:23;;;;;;;2.75;2.00;;;;;;;11.00;61.03;93620.78;521959;28;847;-70
2024/03/30 00:49:38;;;;;;;2.63;2.00;;;;;;;11.02;60.86;93620.97;521661;28;859;-70
2024/03/30 00:49:54;;;;;;;4.43;2.55;;;;;;;11.05;60.82;93616.38;521899;28;799;-70
2024/03/30 00:50:09;;;;;;;5.33;3.00;;;;;;;11.07;60.71;93614.56;521955;28;788;-70
2024/03/30 00:50:25;;;;;;;4.53;3.10;;;;;;;11.08;60.78;93618.81;521667;28;1088;-70
2024/03/30 00:50:40;;;;;;;4.13;3.40;;;;;;;11.10;60.50;93615.50;521820;28;805;-70
2024/03/30 00:50:56;;;;;;;4.40;3.75;;;;;;;11.10;60.16;93621.75;521830;28;819;-70
2024/03/30 00:51:11;;;;;;;5.33;4.27;;;;;;;11.11;60.21;93617.69;521897;28;787;-70
2024/03/30 00:51:26;;;;;;;6.25;5.15;;;;;;;11.12;60.26;93623.97;521912;28;839;-70
2024/03/30 00:51:42;;;;;;;6.80;5.77;;;;;;;11.12;60.36;93613.66;521867;28;807;-70
2024/03/30 00:51:57;;;;;;;5.90;5.30;;;;;;;11.14;60.31;93615.88;521017;28;1724;-70
2024/03/30 00:52:13;;;;;;;4.83;4.40;;;;;;;11.14;60.36;93618.63;521707;28;1057;-70
2024/03/30 00:52:28;;;;;;;4.70;4.10;;;;;;;11.16;60.41;93621.56;520327;28;851;-70
2024/03/30 00:52:44;;;;;;;5.32;4.13;;;;;;;11.16;60.42;93619.56;521507;28;815;-70
2024/03/30 00:53:01;;;;;;;5.60;4.47;;;;;;;11.17;60.42;93617.53;521832;28;788;-70
2024/03/30 00:53:17;;;;;;;5.78;5.05;;;;;;;11.19;60.79;93617.72;521825;28;848;-70
2024/03/30 00:53:32;;;;;;;6.17;5.53;;;;;;;11.20;60.24;93613.66;521832;28;845;-70
2024/03/30 00:53:48;;;;;;;6.32;5.65;;;;;;;11.20;60.46;93619.94;521715;28;894;-70
2024/03/30 00:54:03;;;;;;;7.70;5.83;;;;;;;11.21;60.35;93612.38;521891;28;780;-70
2024/03/30 00:54:19;;;;;;;7.00;5.50;;;;;;;11.22;60.09;93622.13;521875;28;831;-70
2024/03/30 00:54:34;;;;;;;5.60;5.03;;;;;;;11.23;59.97;93618.84;521486;28;1756;-70
2024/03/30 00:54:50;;;;;;;6.60;5.27;;;;;;;11.24;60.17;93616.81;520711;28;875;-71
2024/03/30 00:55:05;;;;;;;8.20;5.07;;;;;;;11.25;60.17;93615.53;521842;28;796;-70
2024/03/30 00:55:21;;;;;;;7.53;4.80;;;;;;;11.25;60.08;93607.22;521846;28;1124;-70
2024/03/30 00:55:36;;;;;;;5.38;4.53;;;;;;;11.26;60.17;93623.25;521809;28;820;-70
2024/03/30 00:55:59;;;;;;;6.17;3.97;;;;;;;11.18;60.17;93602.41;521878;28;791;-70
2024/03/30 00:56:14;;;;;;;4.10;3.70;;;;;;;11.27;59.89;93608.16;521922;28;828;-70
2024/03/30 00:56:30;;;;;;;4.10;3.70;;;;;;;11.28;59.91;93611.69;521798;28;845;-70
2024/03/30 00:56:46;;;;;;;4.00;3.60;;;;;;;11.25;60.08;93615.53;521725;28;860;-70
2024/03/30 00:57:01;;;;;;;4.13;3.70;;;;;;;11.23;60.32;93615.34;521733;28;1056;-70
2024/03/30 00:57:17;;;;;;;4.13;3.72;;;;;;;11.15;60.45;93611.81;521944;28;837;-70
2024/03/30 00:57:32;;;;;;;4.93;3.80;;;;;;;11.22;60.54;93616.63;521607;28;2102;-70
2024/03/30 00:57:48;;;;;;;5.60;3.93;;;;;;;11.22;60.20;93613.84;521670;28;1028;-70
2024/03/30 00:58:03;;;;;;;4.45;3.78;;;;;;;11.18;60.23;93611.44;521728;28;913;-71
2024/03/30 00:58:19;;;;;;;4.70;3.70;;;;;;;11.23;60.14;93618.09;521699;28;843;-70
2024/03/30 00:58:34;;;;;;;4.95;3.70;;;;;;;11.20;60.55;93608.88;520948;28;1707;-70
2024/03/30 00:58:50;;;;;;;3.90;3.50;;;;;;;11.17;60.75;93614.78;520501;28;848;-70
2024/03/30 00:59:05;;;;;;;4.20;3.70;;;;;;;11.14;60.81;93616.59;521684;28;839;-70
2024/03/30 00:59:21;;;;;;;5.13;4.00;;;;;;;11.11;60.90;93616.97;521720;28;903;-70
2024/03/30 00:59:38;;;;;;;4.57;3.78;;;;;;;11.09;61.16;93611.97;521816;28;847;-70
2024/03/30 00:59:53;;;;;;;6.07;3.55;;;;;;;11.07;61.27;93614.56;521867;28;828;-70
2024/03/30 01:00:15;;;;;;;5.87;3.50;;;;;;;10.84;60.90;93577.09;521584;28;1044;-70
2024/03/30 01:00:31;;;;;;;5.50;3.65;;;;;;;11.09;60.91;93611.22;521962;28;1013;-70
2024/03/30 01:00:46;;;;;;;4.78;3.50;;;;;;;11.09;61.12;93609.22;519875;28;851;-70
2024/03/30 01:01:03;;;;;;;3.80;3.23;;;;;;;11.11;60.80;93614.22;519835;28;832;-70
2024/03/30 01:01:19;;;;;;;3.72;3.00;;;;;;;11.12;60.94;93613.66;519765;28;922;-70
2024/03/30 01:01:34;;;;;;;3.60;2.90;;;;;;;11.12;60.55;93613.66;520277;28;805;-70
2024/03/30 01:01:50;;;;;;;3.40;2.90;;;;;;;11.14;60.68;93607.56;521749;28;1085;-70
2024/03/30 01:02:06;;;;;;;3.58;2.83;;;;;;;11.14;60.40;93613.84;521950;28;804;-70
2024/03/30 01:02:21;;;;;;;3.40;3.08;;;;;;;11.15;60.55;93611.81;521989;28;907;-70
2024/03/30 01:02:40;;;;;;;3.70;3.40;;;;;;;11.16;60.51;93610.53;521797;28;780;-70
2024/03/30 01:02:56;;;;;;;3.65;3.35;;;;;;;11.15;60.40;93612.53;521360;28;2454;-71
2024/03/30 01:03:11;;;;;;;4.00;3.10;;;;;;;11.14;60.31;93608.31;520359;28;799;-71
2024/03/30 01:03:27;;;;;;;3.70;2.70;;;;;;;11.14;60.49;93618.63;521417;28;1078;-71
2024/03/30 01:03:42;;;;;;;3.47;2.80;;;;;;;11.13;60.25;93615.13;521681;28;840;-71
2024/03/30 01:03:58;;;;;;;4.15;3.08;;;;;;;11.14;60.58;93607.56;521767;28;832;-71
2024/03/30 01:04:13;;;;;;;3.97;2.87;;;;;;;11.15;60.22;93617.34;521737;28;816;-71
2024/03/30 01:04:30;;;;;;;3.30;2.45;;;;;;;11.13;60.42;93614.41;521712;28;796;-71
2024/03/30 01:04:45;;;;;;;3.05;2.45;;;;;;;11.13;60.41;93611.63;521646;28;859;-71
2024/03/30 01:05:01;;;;;;;3.23;2.60;;;;;;;11.13;60.55;93614.41;521881;28;1014;-71
2024/03/30 01:05:19;;;;;;;3.50;2.33;;;;;;;11.13;60.65;93614.41;521612;28;891;-71
2024/03/30 01:05:35;;;;;;;3.05;2.03;;;;;;;11.13;60.72;93615.13;521868;28;935;-71
2024/03/30 01:05:50;;;;;;;2.80;1.80;;;;;;;11.11;60.86;93611.44;521460;28;1864;-71
2024/03/30 01:06:06;;;;;;;3.00;1.73;;;;;;;11.10;60.59;93615.50;520826;28;982;-71
2024/03/30 01:06:21;;;;;;;2.30;1.60;;;;;;;11.10;61.03;93607.94;520263;28;770;-71
2024/03/30 01:06:37;;;;;;;1.60;1.50;;;;;;;11.10;60.45;93615.50;521813;28;757;-71
2024/03/30 01:06:52;;;;;;;1.83;1.50;;;;;;;11.08;60.52;93609.78;521764;28;1073;-71
2024/03/30 01:07:09;;;;;;;3.22;1.80;;;;;;;11.10;59.91;93609.97;521891;28;756;-71
2024/03/30 01:07:24;;;;;;;3.15;1.95;;;;;;;11.10;60.09;93609.97;521947;28;840;-71
2024/03/30 01:07:39;;;;;;;3.20;1.95;;;;;;;11.09;59.91;93623.03;521739;28;749;-71
2024/03/30 01:07:55;;;;;;;2.73;1.83;;;;;;;11.09;59.88;93609.22;521914;28;784;-71
2024/03/30 01:08:10;;;;;;;2.13;1.93;;;;;;;10.87;59.58;93581.53;521845;28;1914;-71
2024/03/30 01:08:26;;;;;;;2.85;2.10;;;;;;;10.98;60.18;93611.59;521614;28;1049;-71
2024/03/30 01:08:41;;;;;;;3.20;2.00;;;;;;;10.87;60.22;93609.16;521882;28;788;-71
2024/03/30 01:08:57;;;;;;;2.30;1.98;;;;;;;10.76;61.05;93606.72;521878;28;856;-71
2024/03/30 01:09:12;;;;;;;2.17;1.97;;;;;;;10.66;61.51;93604.47;522019;28;823;-71
2024/03/30 01:09:28;;;;;;;3.90;2.00;;;;;;;10.62;61.52;93611.63;521893;28;855;-71
2024/03/30 01:09:43;;;;;;;3.67;1.90;;;;;;;10.60;61.55;93612.16;521811;28;880;-72
2024/03/30 01:09:59;;;;;;;2.58;2.05;;;;;;;10.61;61.25;93608.09;521490;28;1041;-70
2024/03/30 01:10:15;;;;;;;2.90;2.17;;;;;;;10.65;61.41;93616.06;521903;28;1175;-70
2024/03/30 01:10:31;;;;;;;3.03;2.30;;;;;;;10.67;61.53;93610.72;520853;28;1452;-72
2024/03/30 01:10:47;;;;;;;3.15;2.22;;;;;;;10.68;61.40;93610.16;521423;28;843;-71
2024/03/30 01:11:04;;;;;;;2.40;2.00;;;;;;;10.73;61.19;93611.28;519880;28;911;-70
2024/03/30 01:11:19;;;;;;;3.15;2.40;;;;;;;10.73;61.48;93614.06;519816;28;905;-71
2024/03/30 01:11:38;;;;;;;3.15;2.50;;;;;;;10.77;61.44;93613.69;520157;28;1065;-71
2024/03/30 01:11:54;;;;;;;3.92;2.45;;;;;;;10.78;61.39;93613.16;519875;28;810;-71
2024/03/30 01:12:10;;;;;;;5.63;2.50;;;;;;;10.80;61.66;93610.59;519882;28;820;-71
2024/03/30 01:12:26;;;;;;;4.65;2.33;;;;;;;10.81;61.26;93606.53;520080;28;954;-70
2024/03/30 01:12:43;;;;;;;3.63;2.75;;;;;;;10.82;61.46;93607.28;520808;28;809;-71
2024/03/30 01:12:58;;;;;;;5.72;3.22;;;;;;;10.57;61.21;93571.84;519992;28;1753;-71
2024/03/30 01:13:14;;;;;;;3.95;2.95;;;;;;;10.82;61.46;93608.03;521022;28;842;-71
2024/03/30 01:13:30;;;;;;;3.17;2.83;;;;;;;10.80;61.38;93604.34;521471;28;733;-70
2024/03/30 01:13:46;;;;;;;4.40;3.00;;;;;;;10.77;61.21;93610.94;521642;28;840;-71
2024/03/30 01:14:03;;;;;;;5.95;3.25;;;;;;;10.71;61.65;93610.38;521967;28;890;-71
2024/03/30 01:14:21;;;;;;;4.80;3.00;;;;;;;10.68;61.82;93603.19;521842;28;865;-71
2024/03/30 01:14:40;;;;;;;3.80;2.92;;;;;;;10.63;61.80;93611.06;521735;28;833;-71
2024/03/30 01:14:55;;;;;;;3.42;3.08;;;;;;;10.57;61.86;93598.69;521719;28;1065;-71
2024/03/30 01:15:11;;;;;;;3.67;2.95;;;;;;;10.60;61.81;93605.91;521978;28;756;-71
2024/03/30 01:15:27;;;;;;;3.72;2.80;;;;;;;10.58;61.78;93605.72;521756;28;987;-70
2024/03/30 01:15:43;;;;;;;3.50;3.00;;;;;;;10.57;62.11;93610.47;520666;28;1622;-71
2024/03/30 01:15:59;;;;;;;4.05;3.22;;;;;;;10.58;62.01;93606.44;521785;28;856;-71
2024/03/30 01:16:14;;;;;;;4.97;3.47;;;;;;;10.56;62.17;93616.56;521851;28;867;-71
2024/03/30 01:16:30;;;;;;;4.25;3.28;;;;;;;10.56;61.97;93608.28;521686;28;989;-71
2024/03/30 01:16:46;;;;;;;3.50;2.93;;;;;;;10.56;61.98;93605.50;521774;28;803;-70
2024/03/30 01:17:02;;;;;;;3.55;2.95;;;;;;;10.50;62.11;93608.41;521903;28;982;-71
2024/03/30 01:17:18;;;;;;;3.60;3.20;;;;;;;10.53;62.25;93606.59;521765;28;944;-71